Latest Weather Observations for Wattamolla

IDN60801

Issued at 10:32 am EST Tuesday 26 May 2020 (issued every 10 minutes, with the page automatically refreshed every 10 minutes)

About weather observations | Map of weather stations | Latest weather observations for NSW | Other Formats
Station Details ID: 066208 Name: WATTAMOLLA AWS Lat: -34.14 Lon: 151.12 Height: 44.0 m
Data from the previous 72 hours. | See also: Recent months at Wattamolla
Date/Time
EST
Temp
°C
App
Temp
°C
Dew
Point
°C
Rel
Hum
%
Delta-T
°C
Wind Press
QNH
hPa
Press
MSL
hPa
Rain since
9am
mm
Dir  Spd
km/h
Gust
km/h
Spd
kts
Gust
kts
26/10:30am - - - - - SSE 44 56 24 30 - - -
26/10:00am - - - - - SSE 41 56 22 30 - - -
26/09:30am - - - - - S 28 46 15 25 - - -
26/09:26am - - - - - S 32 50 17 27 - - -
26/09:00am - - - - - S 39 54 21 29 - - -
26/08:40am - - - - - S 28 52 15 28 - - -
26/08:30am - - - - - S 24 41 13 22 - - -
26/08:00am - - - - - S 43 56 23 30 - - -
26/07:30am - - - - - S 43 56 23 30 - - -
26/07:18am - - - - - S 37 56 20 30 - - -
26/07:00am - - - - - S 37 56 20 30 - - -
26/06:56am - - - - - S 35 56 19 30 - - -
26/06:30am - - - - - S 24 57 13 31 - - -
26/06:00am - - - - - S 35 56 19 30 - - -
26/05:55am - - - - - S 41 59 22 32 - - -
26/05:30am - - - - - S 54 63 29 34 - - -
26/05:27am - - - - - S 52 63 28 34 - - -
26/05:00am - - - - - S 41 63 22 34 - - -
26/04:30am - - - - - S 43 61 23 33 - - -
26/04:00am - - - - - S 37 59 20 32 - - -
26/03:44am - - - - - S 33 59 18 32 - - -
26/03:30am - - - - - S 19 59 10 32 - - -
26/03:00am - - - - - S 32 59 17 32 - - -
26/02:37am - - - - - S 17 59 9 32 - - -
26/02:30am - - - - - S 17 59 9 32 - - -
26/02:00am - - - - - S 28 59 15 32 - - -
26/01:55am - - - - - S 20 59 11 32 - - -
26/01:30am - - - - - S 22 59 12 32 - - -
26/01:00am - - - - - S 24 59 13 32 - - -
26/12:44am - - - - - S 20 57 11 31 - - -
26/12:30am - - - - - S 13 59 7 32 - - -
26/12:03am - - - - - S 22 59 12 32 - - -
26/12:00am - - - - - S 19 57 10 31 - - -
 
Date/Time
EST
Temp
°C
App
Temp
°C
Dew
Point
°C
Rel
Hum
%
Delta-T
°C
Wind Press
QNH
hPa
Press
MSL
hPa
Rain since
9am
mm
Dir  Spd
km/h
Gust
km/h
Spd
kts
Gust
kts
25/11:30pm - - - - - S 28 59 15 32 - - -
25/11:24pm - - - - - S 28 59 15 32 - - -
25/11:00pm - - - - - S 19 61 10 33 - - -
25/10:30pm - - - - - S 37 61 20 33 - - -
25/10:00pm - - - - - S 20 63 11 34 - - -
25/09:59pm - - - - - S 19 63 10 34 - - -
25/09:30pm - - - - - S 17 61 9 33 - - -
25/09:04pm - - - - - S 28 56 15 30 - - -
25/09:00pm - - - - - S 24 57 13 31 - - -
25/08:57pm - - - - - S 22 57 12 31 - - -
25/08:30pm - - - - - S 26 56 14 30 - - -
25/08:02pm - - - - - S 13 56 7 30 - - -
25/08:00pm - - - - - S 7 56 4 30 - - -
25/07:30pm - - - - - S 15 57 8 31 - - -
25/07:29pm - - - - - S 13 57 7 31 - - -
25/07:00pm - - - - - S 4 54 2 29 - - -
25/06:30pm - - - - - S 6 52 3 28 - - -
25/06:00pm - - - - - S 4 50 2 27 - - -
25/05:30pm - - - - - S 2 43 1 23 - - -
25/05:00pm - - - - - CALM 0 28 0 15 - - -
25/04:30pm - - - - - S 2 50 1 27 - - -
25/04:21pm - - - - - S 67 95 36 51 - - -
25/04:05pm - - - - - S 74 95 40 51 - - -
25/04:00pm - - - - - S 74 91 40 49 - - -
25/03:30pm - - - - - S 76 95 41 51 - - -
25/03:11pm - - - - - S 76 95 41 51 - - -
25/03:10pm - - - - - S 78 95 42 51 - - -
25/03:00pm - - - - - S 85 98 46 53 - - -
25/02:36pm - - - - - S 78 98 42 53 - - -
25/02:30pm - - - - - S 78 95 42 51 - - -
25/02:00pm - - - - - S 72 95 39 51 - - -
25/01:33pm - - - - - S 78 96 42 52 - - -
25/01:30pm - - - - - S 82 96 44 52 - - -
25/01:03pm - - - - - S 80 98 43 53 - - -
25/01:00pm - - - - - S 82 98 44 53 - - -
25/12:49pm - - - - - S 76 95 41 51 - - -
25/12:30pm - - - - - S 78 91 42 49 - - -
25/12:01pm - - - - - S 72 91 39 49 - - -
25/12:00pm - - - - - S 74 91 40 49 - - -
25/11:30am - - - - - S 78 96 42 52 - - -
25/11:00am - - - - - S 70 89 38 48 - - -
25/10:58am - - - - - S 70 89 38 48 - - -
25/10:45am - - - - - S 67 87 36 47 - - -
25/10:30am - - - - - SSE 54 78 29 42 - - -
25/10:00am - - - - - SSE 59 80 32 43 - - -
25/09:30am - - - - - S 63 85 34 46 - - -
25/09:00am - - - - - S 63 87 34 47 - - -
25/08:30am - - - - - S 65 87 35 47 - - -
25/08:00am - - - - - S 72 91 39 49 - - -
25/07:30am - - - - - S 67 91 36 49 - - -
25/07:07am - - - - - S 65 83 35 45 - - -
25/07:00am - - - - - S 72 87 39 47 - - -
25/06:38am - - - - - S 67 85 36 46 - - -
25/06:30am - - - - - S 69 83 37 45 - - -
25/06:12am - - - - - S 70 89 38 48 - - -
25/06:00am - - - - - S 76 91 41 49 - - -
25/05:40am - - - - - S 70 89 38 48 - - -
25/05:30am - - - - - S 74 85 40 46 - - -
25/05:00am - - - - - S 72 95 39 51 - - -
25/04:58am - - - - - S 72 95 39 51 - - -
25/04:30am - - - - - S 72 89 39 48 - - -
25/04:02am - - - - - S 67 91 36 49 - - -
25/04:00am - - - - - S 67 80 36 43 - - -
25/03:31am - - - - - S 69 93 37 50 - - -
25/03:30am - - - - - S 69 83 37 45 - - -
25/03:05am - - - - - S 69 91 37 49 - - -
25/03:00am - - - - - S 69 85 37 46 - - -
25/02:34am - - - - - S 70 89 38 48 - - -
25/02:30am - - - - - S 72 89 39 48 - - -
25/02:03am - - - - - S 67 85 36 46 - - -
25/02:00am - - - - - S 65 82 35 44 - - -
25/01:30am - - - - - S 65 80 35 43 - - -
25/01:25am - - - - - S 63 82 34 44 - - -
25/01:00am - - - - - S 70 83 38 45 - - -
25/12:30am - - - - - S 72 89 39 48 - - -
25/12:10am - - - - - S 67 87 36 47 - - -
25/12:00am - - - - - S 70 85 38 46 - - -
 
Date/Time
EST
Temp
°C
App
Temp
°C
Dew
Point
°C
Rel
Hum
%
Delta-T
°C
Wind Press
QNH
hPa
Press
MSL
hPa
Rain since
9am
mm
Dir  Spd
km/h
Gust
km/h
Spd
kts
Gust
kts
24/11:30pm - - - - - S 67 87 36 47 - - -
24/11:00pm - - - - - S 67 89 36 48 - - -
24/10:57pm - - - - - S 67 89 36 48 - - -
24/10:44pm - - - - - S 57 78 31 42 - - -
24/10:42pm - - - - - S 57 78 31 42 - - -
24/10:30pm - - - - - S 69 85 37 46 - - -
24/10:23pm - - - - - S 69 85 37 46 - - -
24/10:06pm - - - - - S 63 82 34 44 - - -
24/10:00pm - - - - - S 69 95 37 51 - - -
24/09:58pm - - - - - S 69 95 37 51 - - -
24/09:55pm - - - - - S 63 95 34 51 - - -
24/09:54pm - - - - - S 59 95 32 51 - - -
24/09:49pm - - - - - S 50 76 27 41 - - -
24/09:40pm - - - - - S 50 69 27 37 - - -
24/09:34pm - - - - - S 61 80 33 43 - - -
24/09:30pm - - - - - S 67 80 36 43 - - -
24/09:24pm - - - - - S 57 80 31 43 - - -
24/09:18pm - - - - - S 54 78 29 42 - - -
24/09:17pm - - - - - S 54 78 29 42 - - -
24/09:00pm - - - - - S 67 85 36 46 - - -
24/08:30pm - - - - - S 61 85 33 46 - - -
24/08:13pm - - - - - S 59 78 32 42 - - -
24/08:00pm - - - - - S 63 78 34 42 - - -
24/07:46pm - - - - - S 56 83 30 45 - - -
24/07:44pm - - - - - S 52 83 28 45 - - -
24/07:40pm - - - - - S 52 76 28 41 - - -
24/07:30pm - - - - - S 61 80 33 43 - - -
24/07:00pm - - - - - S 63 83 34 45 - - -
24/06:30pm - - - - - S 69 93 37 50 - - -
24/06:00pm - - - - - SSE 61 83 33 45 - - -
24/05:30pm - - - - - S 70 96 38 52 - - -
24/05:23pm - - - - - S 78 96 42 52 - - -
24/05:00pm - - - - - S 83 96 45 52 - - -
24/04:30pm - - - - - S 87 106 47 57 - - -
24/04:20pm - - - - - S 85 104 46 56 - - -
24/04:00pm - - - - - S 89 104 48 56 - - -
24/03:52pm - - - - - S 85 104 46 56 - - -
24/03:30pm - - - - - S 87 102 47 55 - - -
24/03:05pm - - - - - S 87 107 47 58 - - -
24/03:00pm - - - - - S 87 102 47 55 - - -
24/02:30pm - - - - - S 85 104 46 56 - - -
24/02:15pm - - - - - S 83 102 45 55 - - -
24/02:00pm - - - - - S 87 102 47 55 - - -
24/01:30pm - - - - - S 83 102 45 55 - - -
24/01:06pm - - - - - S 85 104 46 56 - - -
24/01:00pm - - - - - S 87 104 47 56 - - -
24/12:56pm - - - - - S 82 100 44 54 - - -
24/12:31pm - - - - - S 82 100 44 54 - - -
24/12:30pm - - - - - S 85 100 46 54 - - -
24/12:02pm - - - - - S 85 104 46 56 - - -
24/12:00pm - - - - - S 85 102 46 55 - - -
24/11:30am - - - - - S 82 100 44 54 - - -
24/11:14am - - - - - S 91 109 49 59 - - -
24/11:00am - - - - - S 85 100 46 54 - - -
24/10:31am - - - - - S 76 95 41 51 - - -
24/10:30am - - - - - S 78 95 42 51 - - -
24/10:00am - - - - - S 82 100 44 54 - - -
24/09:46am - - - - - S 78 96 42 52 - - -
24/09:30am - - - - - S 83 100 45 54 - - -
24/09:00am - - - - - S 78 96 42 52 - - -
24/08:31am - - - - - S 76 96 41 52 - - -
24/08:30am - - - - - S 76 91 41 49 - - -
24/08:27am - - - - - S 78 96 42 52 - - -
24/08:19am - - - - - S 76 93 41 50 - - -
24/08:00am - - - - - S 65 83 35 45 - - -
24/07:30am - - - - - S 63 83 34 45 - - -
24/07:01am - - - - - S 61 82 33 44 - - -
24/07:00am - - - - - S 61 76 33 41 - - -
24/06:30am - - - - - S 61 85 33 46 - - -
24/06:00am - - - - - S 70 93 38 50 - - -
24/05:34am - - - - - S 67 89 36 48 - - -
24/05:30am - - - - - S 69 83 37 45 - - -
24/05:00am - - - - - S 72 91 39 49 - - -
24/04:30am - - - - - S 72 91 39 49 - - -
24/04:11am - - - - - S 72 91 39 49 - - -
24/04:00am - - - - - S 74 87 40 47 - - -
24/03:30am - - - - - S 65 91 35 49 - - -
24/03:20am - - - - - S 59 85 32 46 - - -
24/03:19am - - - - - S 59 85 32 46 - - -
24/03:00am - - - - - S 48 70 26 38 - - -
24/02:30am - - - - - S 44 69 24 37 - - -
24/02:00am - - - - - S 37 57 20 31 - - -
24/01:39am - - - - - S 33 52 18 28 - - -
24/01:30am - - - - - S 33 50 18 27 - - -
24/01:00am - - - - - S 41 63 22 34 - - -
24/12:30am - - - - - S 35 57 19 31 - - -
24/12:00am - - - - - S 33 57 18 31 - - -
 
Date/Time
EST
Temp
°C
App
Temp
°C
Dew
Point
°C
Rel
Hum
%
Delta-T
°C
Wind Press
QNH
hPa
Press
MSL
hPa
Rain since
9am
mm
Dir  Spd
km/h
Gust
km/h
Spd
kts
Gust
kts
23/11:30pm - - - - - S 35 54 19 29 - - -
23/11:00pm - - - - - S 33 52 18 28 - - -
23/10:36pm - - - - - S 32 50 17 27 - - -
23/10:30pm - - - - - S 35 57 19 31 - - -
23/10:00pm - - - - - S 32 52 17 28 - - -
23/09:46pm - - - - - SSW 28 54 15 29 - - -
23/09:30pm - - - - - SSW 24 43 13 23 - - -
23/09:00pm - - - - - SSW 24 44 13 24 - - -
23/08:30pm - - - - - SW 20 33 11 18 - - -
23/08:00pm - - - - - WSW 15 22 8 12 - - -
23/07:30pm - - - - - SW 15 24 8 13 - - -
23/07:00pm - - - - - WSW 15 24 8 13 - - -
23/06:30pm - - - - - WSW 19 32 10 17 - - -
23/06:00pm - - - - - WSW 22 32 12 17 - - -
23/05:30pm - - - - - WSW 22 32 12 17 - - -
23/05:00pm - - - - - WSW 19 32 10 17 - - -
23/04:30pm - - - - - WSW 19 30 10 16 - - -
23/04:00pm - - - - - W 19 30 10 16 - - -
23/03:30pm - - - - - W 15 20 8 11 - - -
23/03:00pm - - - - - W 19 26 10 14 - - -
23/02:30pm - - - - - S 26 37 14 20 - - -
23/02:09pm - - - - - S 35 57 19 31 - - -
23/02:00pm - - - - - S 37 59 20 32 - - -
23/01:30pm - - - - - S 28 52 15 28 - - -
23/01:28pm - - - - - S 26 52 14 28 - - -
23/01:00pm - - - - - SW 17 30 9 16 - - -
23/12:30pm - - - - - SW 20 44 11 24 - - -
23/12:15pm - - - - - SSW 24 48 13 26 - - -
23/12:00pm - - - - - SSW 26 57 14 31 - - -
23/11:30am - - - - - S 44 67 24 36 - - -
23/11:22am - - - - - S 39 67 21 36 - - -
23/11:01am - - - - - S 28 46 15 25 - - -
23/11:00am - - - - - SSW 28 41 15 22 - - -
23/10:32am - - - - - SSW 28 46 15 25 - - -

Other formats

Comma delimited format used in spreadsheet applications
http://www.bom.gov.au/fwo/IDN60801/IDN60801.95752.axf

JavaScript Object Notation format (JSON) in row-major order
http://www.bom.gov.au/fwo/IDN60801/IDN60801.95752.json

Data quality

Most of these data are generated automatically and are frequently updated. Quality checks on data are not normally performed. It is possible for incorrect values to appear. Refer to information at About Latest Weather Observations and please check the disclaimer before using these data.